createdAt,value
2023-07-01T00:02:38.332Z,18.10
2023-07-01T00:05:21.998Z,14.15
2023-07-01T00:08:09.291Z,14.45
2023-07-01T00:10:52.450Z,14.80
2023-07-01T00:13:35.115Z,13.43
2023-07-01T00:16:19.596Z,13.80
2023-07-01T00:18:57.576Z,12.85
2023-07-01T00:21:38.370Z,14.60
2023-07-01T00:24:27.248Z,14.88
2023-07-01T00:27:18.461Z,15.18
2023-07-01T00:30:04.359Z,15.25
2023-07-01T00:32:51.281Z,16.33
2023-07-01T00:38:18.146Z,14.68
2023-07-01T00:41:06.080Z,14.27
2023-07-01T00:43:52.742Z,17.38
2023-07-01T00:46:35.663Z,16.45
2023-07-01T00:52:11.954Z,14.75
2023-07-01T00:55:06.197Z,15.73
2023-07-01T00:57:55.346Z,14.77
2023-07-01T01:00:38.987Z,16.85
2023-07-01T01:03:43.636Z,17.48
2023-07-01T01:06:39.201Z,13.43
2023-07-01T01:09:41.494Z,14.60
2023-07-01T01:12:25.580Z,12.82
2023-07-01T01:15:08.014Z,13.25
2023-07-01T01:17:53.522Z,15.80
2023-07-01T01:20:34.500Z,16.20
2023-07-01T01:23:29.832Z,15.65
2023-07-01T01:26:17.284Z,15.77
2023-07-01T01:29:01.967Z,15.88
2023-07-01T01:31:40.427Z,18.75
2023-07-01T01:34:23.974Z,16.70
2023-07-01T01:37:06.621Z,15.98
2023-07-01T01:39:48.777Z,16.30
2023-07-01T01:42:59.512Z,17.13
2023-07-01T01:45:40.696Z,16.58
2023-07-01T01:48:19.309Z,19.35
2023-07-01T01:51:00.099Z,17.70
2023-07-01T01:53:42.885Z,18.08
2023-07-01T01:56:22.223Z,19.83
2023-07-01T01:58:59.882Z,21.70
2023-07-01T02:01:38.325Z,20.58
2023-07-01T02:04:18.914Z,20.13
2023-07-01T02:07:01.009Z,19.27
2023-07-01T02:09:39.338Z,20.08
2023-07-01T02:12:39.417Z,19.20
2023-07-01T02:18:17.939Z,20.20
2023-07-01T02:20:59.878Z,20.27
2023-07-01T02:23:40.635Z,22.02
2023-07-01T02:26:23.085Z,23.40
2023-07-01T02:29:03.044Z,23.90
2023-07-01T02:31:52.607Z,27.33
2023-07-01T02:34:37.130Z,25.10
2023-07-01T02:37:20.616Z,24.02
2023-07-01T02:39:55.967Z,25.73
2023-07-01T02:42:38.412Z,25.48
2023-07-01T02:45:19.432Z,25.30
2023-07-01T02:48:04.842Z,25.08
2023-07-01T02:50:47.045Z,25.35
2023-07-01T02:53:23.067Z,26.45
2023-07-01T02:56:09.052Z,26.20
2023-07-01T02:58:54.327Z,27.25
2023-07-01T03:01:37.483Z,32.70
2023-07-01T03:04:21.550Z,32.03
2023-07-01T03:07:09.951Z,32.28
2023-07-01T03:10:06.665Z,34.60
2023-07-01T03:12:49.815Z,29.50
2023-07-01T03:15:33.769Z,34.88
2023-07-01T03:21:02.182Z,34.78
2023-07-01T03:23:45.885Z,36.13
2023-07-01T03:26:33.996Z,41.55
2023-07-01T03:29:13.083Z,40.70
2023-07-01T03:31:58.125Z,43.42
2023-07-01T03:34:42.352Z,42.65
2023-07-01T03:37:30.597Z,42.97
2023-07-01T03:40:14.907Z,43.60
2023-07-01T03:43:04.114Z,44.47
2023-07-01T03:45:47.307Z,45.55
2023-07-01T03:48:31.113Z,48.63
2023-07-01T03:51:09.192Z,53.58
2023-07-01T03:53:52.908Z,47.47
2023-07-01T03:56:34.275Z,49.38
2023-07-01T03:59:10.889Z,46.05
2023-07-01T04:02:04.987Z,46.55
2023-07-01T04:04:49.328Z,49.92
2023-07-01T04:07:36.889Z,48.53
2023-07-01T04:10:19.139Z,48.17
2023-07-01T04:12:59.566Z,50.63
2023-07-01T04:15:41.176Z,46.17
2023-07-01T04:18:30.073Z,45.50
2023-07-01T04:21:07.878Z,42.25
2023-07-01T04:23:55.403Z,30.95
2023-07-01T04:26:45.277Z,35.05
2023-07-01T04:29:28.166Z,30.90
2023-07-01T04:32:12.872Z,28.95
2023-07-01T04:34:58.752Z,29.65
2023-07-01T04:37:35.309Z,37.10
2023-07-01T04:40:17.934Z,32.42
2023-07-01T04:43:05.113Z,20.67
2023-07-01T04:45:51.522Z,16.70
2023-07-01T04:48:27.837Z,12.98
2023-07-01T04:51:20.376Z,17.05
2023-07-01T04:53:58.795Z,15.02
2023-07-01T04:56:39.720Z,18.70
2023-07-01T04:59:25.751Z,12.63
2023-07-01T05:02:09.440Z,13.07
2023-07-01T05:04:52.917Z,22.52
2023-07-01T05:07:34.923Z,13.93
2023-07-01T05:10:13.812Z,11.38
2023-07-01T05:13:06.376Z,18.92
2023-07-01T05:15:50.573Z,18.15
2023-07-01T05:18:32.348Z,8.77
2023-07-01T05:21:26.652Z,11.60
2023-07-01T05:24:13.542Z,14.23
2023-07-01T05:26:54.823Z,12.88
2023-07-01T05:29:35.050Z,16.10
2023-07-01T05:32:16.709Z,9.63
2023-07-01T05:35:02.479Z,11.65
2023-07-01T05:37:48.409Z,12.15
2023-07-01T05:40:29.584Z,6.47
2023-07-01T05:43:07.587Z,7.95
2023-07-01T05:48:42.407Z,8.85
2023-07-01T05:51:23.884Z,6.43
2023-07-01T05:54:04.852Z,9.05
2023-07-01T05:56:49.688Z,8.98
2023-07-01T05:59:30.656Z,12.20
2023-07-01T06:02:06.039Z,5.82
2023-07-01T06:05:03.753Z,7.22
2023-07-01T06:07:42.342Z,8.15
2023-07-01T06:10:25.598Z,6.35
2023-07-01T06:13:09.758Z,11.10
2023-07-01T06:15:50.825Z,7.15
2023-07-01T06:18:38.443Z,6.32
2023-07-01T06:21:18.045Z,7.70
2023-07-01T06:23:59.321Z,10.30
2023-07-01T06:26:42.352Z,5.35
2023-07-01T06:29:24.657Z,13.37
2023-07-01T06:32:07.942Z,13.15
2023-07-01T06:34:56.251Z,13.43
2023-07-01T06:37:42.613Z,4.50
2023-07-01T06:40:31.752Z,7.80
2023-07-01T06:43:27.219Z,10.50
2023-07-01T06:46:14.732Z,10.75
2023-07-01T06:48:50.931Z,9.75
2023-07-01T06:51:35.261Z,11.05
2023-07-01T06:54:20.629Z,9.15
2023-07-01T06:57:09.490Z,6.07
2023-07-01T06:59:53.609Z,11.48
2023-07-01T07:02:30.737Z,5.05
2023-07-01T07:05:24.826Z,6.72
2023-07-01T07:10:50.332Z,9.10
2023-07-01T07:13:43.418Z,5.20
2023-07-01T07:16:39.015Z,7.47
2023-07-01T07:19:20.709Z,6.82
2023-07-01T07:22:00.097Z,12.77
2023-07-01T07:24:44.889Z,9.60
2023-07-01T07:27:26.358Z,6.95
2023-07-01T07:33:10.707Z,13.25
2023-07-01T07:35:52.027Z,13.90
2023-07-01T07:38:33.190Z,7.22
2023-07-01T07:41:14.710Z,11.57
2023-07-01T07:44:04.484Z,17.67
2023-07-01T07:46:49.867Z,8.45
2023-07-01T07:49:33.202Z,9.30
2023-07-01T07:52:14.113Z,9.75
2023-07-01T07:54:55.053Z,5.97
2023-07-01T07:57:36.142Z,7.30
2023-07-01T08:00:20.485Z,6.63
2023-07-01T08:03:04.947Z,10.93
2023-07-01T08:05:42.918Z,10.25
2023-07-01T08:08:26.868Z,7.72
2023-07-01T08:11:21.269Z,8.90
2023-07-01T08:14:11.822Z,3.33
2023-07-01T08:16:58.106Z,7.75
2023-07-01T08:19:37.787Z,7.00
2023-07-01T08:22:22.497Z,10.68
2023-07-01T08:25:03.422Z,12.93
2023-07-01T08:27:45.057Z,5.07
2023-07-01T08:30:36.125Z,3.45
2023-07-01T08:33:14.672Z,7.50
2023-07-01T08:36:14.735Z,6.95
2023-07-01T08:38:53.279Z,6.63
2023-07-01T08:41:30.049Z,14.18
2023-07-01T08:44:14.489Z,4.10
2023-07-01T08:46:58.124Z,13.88
2023-07-01T08:52:27.380Z,5.68
2023-07-01T08:55:13.790Z,6.95
2023-07-01T08:57:55.756Z,3.83
2023-07-01T09:00:43.055Z,5.65
2023-07-01T09:03:24.987Z,8.10
2023-07-01T09:06:23.486Z,7.65
2023-07-01T09:09:03.050Z,7.68
2023-07-01T09:11:44.478Z,8.23
2023-07-01T09:14:24.877Z,5.05
2023-07-01T09:17:12.435Z,4.88
2023-07-01T09:20:09.943Z,7.47
2023-07-01T09:23:00.016Z,3.95
2023-07-01T09:25:41.251Z,7.60
2023-07-01T09:28:33.706Z,7.57
2023-07-01T09:31:13.195Z,8.13
2023-07-01T09:34:12.742Z,7.53
2023-07-01T09:37:00.671Z,6.05
2023-07-01T09:39:48.038Z,5.25
2023-07-01T09:42:29.047Z,7.10
2023-07-01T09:45:16.560Z,6.53
2023-07-01T09:48:01.050Z,7.53
2023-07-01T09:50:50.610Z,4.40
2023-07-01T09:53:36.884Z,8.32
2023-07-01T09:56:18.263Z,10.77
2023-07-01T09:59:00.602Z,6.28
2023-07-01T10:01:40.066Z,10.90
2023-07-01T10:04:18.418Z,9.90
2023-07-01T10:13:23.909Z,4.15
2023-07-01T10:16:03.887Z,4.30
2023-07-01T10:18:48.400Z,7.05
2023-07-01T10:21:31.203Z,8.65
2023-07-01T10:24:12.114Z,13.02
2023-07-01T10:26:56.175Z,5.50
2023-07-01T10:30:09.501Z,5.63
2023-07-01T10:32:55.924Z,5.85
2023-07-01T10:35:52.108Z,10.02
2023-07-01T10:38:46.013Z,7.45
2023-07-01T10:41:54.975Z,4.93
2023-07-01T10:44:33.378Z,4.18
2023-07-01T10:47:24.675Z,4.40
2023-07-01T10:50:09.123Z,6.43
2023-07-01T10:53:05.325Z,7.80
2023-07-01T10:56:03.047Z,6.05
2023-07-01T10:58:45.298Z,5.45
2023-07-01T11:01:48.887Z,3.35
2023-07-01T11:04:49.464Z,7.80
2023-07-01T11:07:38.043Z,4.97
2023-07-01T11:10:19.046Z,5.15
2023-07-01T11:13:11.398Z,7.00
2023-07-01T11:16:10.082Z,8.73
2023-07-01T11:18:55.538Z,9.90
2023-07-01T11:21:36.387Z,14.43
2023-07-01T11:24:16.588Z,7.10
2023-07-01T11:27:07.697Z,7.95
2023-07-01T11:29:49.421Z,11.00
2023-07-01T11:32:30.230Z,5.95
2023-07-01T11:35:17.539Z,3.85
2023-07-01T11:37:58.473Z,3.95
2023-07-01T11:40:49.315Z,4.28
2023-07-01T11:46:34.128Z,4.35
2023-07-01T11:49:28.205Z,5.10
2023-07-01T11:52:22.727Z,4.77
2023-07-01T11:55:04.255Z,5.10
2023-07-01T12:00:47.900Z,6.43
2023-07-01T12:06:24.756Z,5.38
2023-07-01T12:09:12.120Z,8.80
2023-07-01T12:12:23.430Z,7.78
2023-07-01T12:15:07.372Z,6.57
2023-07-01T12:17:48.722Z,5.95
2023-07-01T12:20:32.278Z,7.10
2023-07-01T12:26:25.446Z,11.73
2023-07-01T12:29:00.988Z,5.43
2023-07-01T12:31:47.223Z,8.02
2023-07-01T12:34:26.285Z,12.13
2023-07-01T12:37:18.462Z,8.07
2023-07-01T12:40:06.572Z,7.20
2023-07-01T12:42:52.617Z,8.27
2023-07-01T12:45:34.305Z,10.73
2023-07-01T12:48:26.210Z,7.68
2023-07-01T12:51:06.632Z,8.13
2023-07-01T12:53:46.252Z,10.95
2023-07-01T12:56:26.480Z,5.40
2023-07-01T12:59:23.044Z,9.98
2023-07-01T13:02:10.380Z,7.03
2023-07-01T13:04:45.762Z,8.13
2023-07-01T13:07:35.464Z,4.65
2023-07-01T13:10:14.808Z,11.20
2023-07-01T13:13:00.192Z,7.38
2023-07-01T13:15:48.780Z,12.23
2023-07-01T13:18:32.174Z,4.78
2023-07-01T13:21:09.997Z,9.13
2023-07-01T13:23:57.837Z,11.27
2023-07-01T13:26:49.643Z,8.07
2023-07-01T13:29:33.214Z,5.20
2023-07-01T13:32:12.444Z,7.90
2023-07-01T13:34:57.385Z,7.53
2023-07-01T13:37:38.348Z,9.50
2023-07-01T13:40:28.379Z,5.68
2023-07-01T13:43:07.277Z,5.57
2023-07-01T13:45:49.403Z,4.15
2023-07-01T13:48:39.700Z,5.07
2023-07-01T13:51:23.785Z,3.97
2023-07-01T13:54:21.527Z,8.63
2023-07-01T13:57:03.747Z,5.43
2023-07-01T13:59:47.603Z,4.40
2023-07-01T14:02:26.050Z,7.80
2023-07-01T14:05:16.447Z,7.10
2023-07-01T14:08:01.672Z,6.18
2023-07-01T14:10:46.320Z,9.50
2023-07-01T14:13:31.385Z,6.18
2023-07-01T14:16:21.164Z,3.78
2023-07-01T14:19:08.492Z,6.20
2023-07-01T14:21:50.401Z,8.38
2023-07-01T14:24:28.101Z,6.85
2023-07-01T14:27:16.836Z,8.48
2023-07-01T14:33:03.122Z,6.30
2023-07-01T14:35:47.461Z,4.47
2023-07-01T14:38:30.441Z,5.90
2023-07-01T14:41:02.270Z,5.45
2023-07-01T14:46:58.685Z,6.40
2023-07-01T14:49:37.137Z,9.60
2023-07-01T14:52:31.722Z,7.07
2023-07-01T14:55:17.412Z,9.18
2023-07-01T14:57:52.273Z,6.72
2023-07-01T15:00:30.762Z,7.07
2023-07-01T15:03:15.971Z,8.23
2023-07-01T15:05:53.171Z,5.47
2023-07-01T15:08:28.596Z,7.80
2023-07-01T15:11:12.789Z,7.68
2023-07-01T15:13:48.251Z,13.75
2023-07-01T15:16:24.260Z,12.75
2023-07-01T15:18:56.511Z,8.20
2023-07-01T15:21:44.108Z,7.28
2023-07-01T15:24:16.842Z,7.18
2023-07-01T15:26:52.322Z,6.85
2023-07-01T15:29:32.517Z,13.68
2023-07-01T15:32:11.869Z,8.07
2023-07-01T15:34:52.429Z,9.70
2023-07-01T15:37:34.690Z,11.57
2023-07-01T15:40:12.880Z,12.30
2023-07-01T15:42:48.746Z,8.85
2023-07-01T15:45:32.085Z,10.02
2023-07-01T15:48:17.452Z,11.93
2023-07-01T15:50:50.443Z,11.93
2023-07-01T15:53:43.227Z,15.93
2023-07-01T15:56:20.013Z,8.98
2023-07-01T15:58:52.621Z,6.10
2023-07-01T16:01:32.071Z,18.35
2023-07-01T16:04:16.766Z,17.00
2023-07-01T16:07:01.885Z,12.55
2023-07-01T16:09:51.051Z,12.20
2023-07-01T16:12:47.284Z,8.85
2023-07-01T16:15:26.430Z,14.93
2023-07-01T16:18:30.419Z,13.60
2023-07-01T16:21:13.819Z,11.20
2023-07-01T16:24:10.319Z,9.77
2023-07-01T16:26:43.490Z,17.98
2023-07-01T16:29:16.621Z,28.02
2023-07-01T16:31:51.377Z,16.33
2023-07-01T16:34:32.649Z,15.40
2023-07-01T16:37:08.214Z,10.52
2023-07-01T16:39:52.977Z,14.63
2023-07-01T16:42:40.144Z,16.58
2023-07-01T16:45:39.334Z,11.55
2023-07-01T16:48:27.475Z,13.45
2023-07-01T16:51:09.225Z,18.20
2023-07-01T16:53:55.050Z,9.02
2023-07-01T16:56:51.250Z,6.85
2023-07-01T16:59:47.931Z,10.60
2023-07-01T17:02:36.074Z,7.10
2023-07-01T17:05:15.423Z,12.18
2023-07-01T17:07:50.936Z,16.88
2023-07-01T17:10:37.637Z,16.48
2023-07-01T17:13:37.730Z,15.02
2023-07-01T17:16:16.046Z,10.20
2023-07-01T17:18:57.633Z,12.52
2023-07-01T17:21:45.932Z,9.55
2023-07-01T17:24:27.866Z,12.57
2023-07-01T17:27:12.710Z,12.10
2023-07-01T17:29:51.812Z,12.65
2023-07-01T17:32:42.635Z,13.25
2023-07-01T17:35:18.584Z,7.63
2023-07-01T17:38:02.084Z,15.82
2023-07-01T17:40:37.622Z,13.95
2023-07-01T17:43:24.614Z,15.02
2023-07-01T17:46:02.034Z,17.90
2023-07-01T17:48:46.602Z,16.20
2023-07-01T17:51:30.235Z,15.98
2023-07-01T17:54:11.982Z,23.40
2023-07-01T17:56:54.335Z,13.65
2023-07-01T17:59:33.325Z,13.35
2023-07-01T18:02:17.419Z,14.07
2023-07-01T18:05:03.492Z,14.73
2023-07-01T18:07:45.662Z,13.25
2023-07-01T18:10:30.047Z,16.10
2023-07-01T18:13:08.251Z,16.27
2023-07-01T18:15:49.698Z,11.90
2023-07-01T18:18:22.608Z,17.63
2023-07-01T18:21:05.130Z,17.63
2023-07-01T18:23:54.476Z,16.30
2023-07-01T18:26:36.336Z,14.45
2023-07-01T18:29:27.998Z,18.65
2023-07-01T18:32:02.069Z,17.48
2023-07-01T18:34:47.895Z,9.38
2023-07-01T18:37:28.354Z,10.95
2023-07-01T18:40:00.815Z,9.57
2023-07-01T18:42:50.123Z,11.32
2023-07-01T18:45:27.680Z,13.68
2023-07-01T18:48:20.361Z,10.35
2023-07-01T18:51:01.897Z,14.23
2023-07-01T18:53:47.381Z,12.95
2023-07-01T18:56:22.827Z,8.30
2023-07-01T18:59:02.204Z,10.38
2023-07-01T19:01:41.487Z,8.93
2023-07-01T19:04:32.279Z,12.32
2023-07-01T19:07:05.046Z,9.82
2023-07-01T19:09:41.103Z,11.63
2023-07-01T19:12:21.465Z,12.77
2023-07-01T19:15:07.042Z,14.35
2023-07-01T19:17:45.012Z,11.98
2023-07-01T19:20:57.675Z,11.48
2023-07-01T19:23:46.502Z,13.60
2023-07-01T19:26:21.875Z,10.77
2023-07-01T19:29:07.251Z,12.32
2023-07-01T19:31:52.131Z,12.70
2023-07-01T19:34:36.535Z,9.90
2023-07-01T19:37:22.173Z,11.15
2023-07-01T19:40:04.604Z,11.83
2023-07-01T19:42:49.459Z,12.70
2023-07-01T19:45:25.202Z,8.57
2023-07-01T19:48:07.300Z,13.90
2023-07-01T19:50:50.759Z,8.85
2023-07-01T19:53:33.104Z,10.48
2023-07-01T19:56:19.971Z,10.77
2023-07-01T19:59:03.374Z,10.70
2023-07-01T20:01:46.080Z,13.23
2023-07-01T20:04:30.856Z,13.45
2023-07-01T20:07:19.948Z,11.70
2023-07-01T20:10:12.461Z,13.23
2023-07-01T20:12:58.773Z,12.50
2023-07-01T20:15:44.020Z,10.63
2023-07-01T20:18:22.364Z,10.20
2023-07-01T20:21:03.197Z,11.02
2023-07-01T20:23:43.589Z,12.18
2023-07-01T20:26:30.074Z,11.32
2023-07-01T20:29:15.375Z,9.70
2023-07-01T20:32:10.771Z,9.50
2023-07-01T20:34:58.599Z,10.98
2023-07-01T20:37:39.640Z,9.55
2023-07-01T20:40:24.002Z,10.60
2023-07-01T20:43:44.478Z,11.52
2023-07-01T20:46:28.962Z,8.90
2023-07-01T20:52:05.921Z,9.68
2023-07-01T20:54:40.999Z,9.63
2023-07-01T20:57:29.898Z,10.63
2023-07-01T21:00:13.707Z,11.43
2023-07-01T21:05:38.881Z,10.13
2023-07-01T21:08:23.889Z,11.45
2023-07-01T21:11:12.726Z,9.73
2023-07-01T21:14:01.272Z,10.15
2023-07-01T21:16:51.879Z,9.38
2023-07-01T21:19:46.532Z,10.35
2023-07-01T21:25:39.980Z,11.38
2023-07-01T21:28:16.418Z,14.32
2023-07-01T21:31:05.750Z,12.32
2023-07-01T21:33:41.423Z,13.52
2023-07-01T21:36:22.766Z,16.10
2023-07-01T21:39:10.390Z,14.18
2023-07-01T21:42:04.232Z,16.27
2023-07-01T21:45:02.584Z,16.77
2023-07-01T21:51:17.239Z,21.05
2023-07-01T21:54:02.851Z,24.35
2023-07-01T21:56:52.595Z,26.95
2023-07-01T21:59:33.933Z,23.40
2023-07-01T22:02:31.121Z,25.02
2023-07-01T22:05:18.278Z,23.92
2023-07-01T22:07:59.257Z,29.30
2023-07-01T22:10:56.991Z,28.40
2023-07-01T22:13:41.085Z,28.45
2023-07-01T22:16:24.222Z,29.92
2023-07-01T22:19:02.137Z,28.40
2023-07-01T22:21:48.684Z,30.95
2023-07-01T22:24:35.038Z,29.05
2023-07-01T22:27:18.674Z,36.47
2023-07-01T22:30:04.194Z,28.17
2023-07-01T22:32:48.237Z,28.42
2023-07-01T22:35:29.109Z,27.73
2023-07-01T22:38:08.162Z,29.48
2023-07-01T22:41:00.869Z,27.88
2023-07-01T22:43:48.260Z,26.40
2023-07-01T22:46:35.999Z,27.30
2023-07-01T22:49:16.850Z,29.40
2023-07-01T22:51:59.017Z,27.50
2023-07-01T22:54:54.642Z,30.98
2023-07-01T22:57:40.403Z,30.95
2023-07-01T23:00:28.863Z,31.70
2023-07-01T23:03:15.980Z,30.27
2023-07-01T23:06:01.581Z,29.67
2023-07-01T23:08:44.510Z,28.17
2023-07-01T23:11:23.161Z,27.98
2023-07-01T23:14:10.200Z,30.15
2023-07-01T23:16:54.735Z,28.42
2023-07-01T23:19:41.088Z,28.42
2023-07-01T23:25:23.539Z,26.52
2023-07-01T23:28:11.289Z,27.25
2023-07-01T23:31:06.840Z,30.40
2023-07-01T23:33:44.956Z,27.35
2023-07-01T23:36:23.301Z,26.75
2023-07-01T23:42:07.182Z,25.52
2023-07-01T23:44:52.268Z,24.42
2023-07-01T23:47:45.854Z,23.95
2023-07-01T23:50:31.193Z,24.60
2023-07-01T23:53:12.075Z,23.92
2023-07-01T23:55:56.865Z,23.35
2023-07-01T23:58:40.765Z,23.60
